Time;durP1;ratioP1;P1;durP2;ratioP2;P2;SDS_P1;SDS_P2;PMS_P1;PMS_P2;Temp;Humidity;BMP_temperature;BMP_pressure;BME280_temperature;BME280_humidity;BME280_pressure;Samples;Min_cycle;Max_cycle;Signal;HPM_P1;HPM_P2
2021/09/01 00:00:59;;;;;;;7.20;5.30;;;21.90;57.70;;;;;;5023311;28;20194;-47
2021/09/01 00:03:24;;;;;;;5.23;4.73;;;21.80;57.80;;;;;;5014832;28;20218;-48
2021/09/01 00:05:50;;;;;;;10.60;5.30;;;21.90;57.90;;;;;;5023036;28;20202;-47
2021/09/01 00:08:15;;;;;;;7.27;5.10;;;21.80;58.00;;;;;;5016812;28;20212;-45
2021/09/01 00:10:41;;;;;;;6.30;5.50;;;21.90;57.80;;;;;;5027387;28;20335;-48
2021/09/01 00:13:07;;;;;;;4.83;4.43;;;21.90;57.50;;;;;;5023890;28;20566;-49
2021/09/01 00:15:33;;;;;;;8.97;8.07;;;21.80;57.10;;;;;;5019265;28;20198;-46
2021/09/01 00:17:59;;;;;;;6.80;6.20;;;21.90;56.60;;;;;;5021403;28;21094;-47
2021/09/01 00:20:26;;;;;;;6.40;5.33;;;21.80;56.50;;;;;;5029782;28;20221;-46
2021/09/01 00:22:53;;;;;;;5.70;4.97;;;21.70;56.30;;;;;;5015781;28;20228;-45
2021/09/01 00:25:18;;;;;;;8.10;5.43;;;21.70;56.90;;;;;;5017106;28;20495;-47
2021/09/01 00:27:44;;;;;;;6.10;5.60;;;21.70;57.30;;;;;;5024505;28;21174;-47
2021/09/01 00:30:10;;;;;;;5.40;4.90;;;21.70;57.60;;;;;;5016321;28;20197;-45
2021/09/01 00:32:36;;;;;;;6.27;5.33;;;21.60;57.70;;;;;;5018766;28;22114;-48
2021/09/01 00:35:02;;;;;;;5.70;5.20;;;21.70;57.80;;;;;;5028196;28;20447;-45
2021/09/01 00:37:27;;;;;;;8.33;7.53;;;21.70;57.90;;;;;;5023668;28;20210;-46
2021/09/01 00:39:53;;;;;;;8.97;6.47;;;21.70;57.80;;;;;;5025328;28;20514;-46
2021/09/01 00:42:18;;;;;;;10.20;6.50;;;21.80;57.80;;;;;;5026666;28;20327;-46
2021/09/01 00:44:46;;;;;;;14.33;7.10;;;21.70;56.40;;;;;;5026883;28;20225;-45
2021/09/01 00:47:16;;;;;;;5.03;4.67;;;21.70;56.60;;;;;;5014254;28;20271;-47
2021/09/01 00:49:42;;;;;;;6.33;5.73;;;21.60;56.90;;;;;;5015258;28;20453;-46
2021/09/01 00:52:07;;;;;;;6.40;5.90;;;21.60;57.80;;;;;;5022139;28;20437;-46
2021/09/01 00:54:33;;;;;;;5.57;5.17;;;21.60;58.00;;;;;;5023360;28;20193;-46
2021/09/01 00:57:02;;;;;;;10.83;6.03;;;21.60;58.00;;;;;;5019526;28;20190;-47
2021/09/01 00:59:30;;;;;;;9.87;7.27;;;21.60;58.10;;;;;;5029012;28;20331;-46
2021/09/01 01:01:57;;;;;;;7.03;6.50;;;21.60;57.90;;;;;;5025102;28;20436;-47
2021/09/01 01:04:27;;;;;;;6.60;5.90;;;21.60;56.90;;;;;;5021264;28;20492;-46
2021/09/01 01:06:58;;;;;;;5.90;5.30;;;21.50;58.20;;;;;;5018819;28;20891;-45
2021/09/01 01:09:23;;;;;;;6.10;5.50;;;21.50;58.20;;;;;;5026519;28;20557;-45
2021/09/01 01:12:08;;;;;;;6.27;5.67;;;21.50;58.30;;;;;;5024531;28;20440;-46
2021/09/01 01:14:42;;;;;;;5.60;5.10;;;21.50;58.00;;;;;;5023670;28;20227;-45
2021/09/01 01:17:10;;;;;;;7.07;6.47;;;21.50;58.70;;;;;;5014102;28;20445;-51
2021/09/01 01:19:39;;;;;;;6.33;5.73;;;21.50;57.60;;;;;;5026735;28;20912;-49
2021/09/01 01:22:05;;;;;;;8.00;4.87;;;21.60;58.00;;;;;;5017974;28;20444;-50
2021/09/01 01:24:54;;;;;;;5.73;5.23;;;21.50;58.10;;;;;;5028099;28;20869;-49
2021/09/01 01:27:27;;;;;;;6.23;5.63;;;21.60;58.20;;;;;;5021023;28;20209;-50
2021/09/01 01:29:54;;;;;;;7.40;6.00;;;21.50;58.00;;;;;;5014454;28;20475;-50
2021/09/01 01:32:19;;;;;;;7.23;5.73;;;21.60;58.20;;;;;;5017371;28;20452;-49
2021/09/01 01:34:45;;;;;;;6.30;5.67;;;21.50;58.10;;;;;;5015774;28;20451;-48
2021/09/01 01:37:10;;;;;;;6.43;5.77;;;21.60;58.00;;;;;;5016575;28;20194;-49
2021/09/01 01:39:36;;;;;;;8.57;6.30;;;21.60;57.10;;;;;;5025507;28;20275;-49
2021/09/01 01:42:02;;;;;;;6.37;5.87;;;21.60;57.50;;;;;;5016769;28;20221;-48
2021/09/01 01:44:27;;;;;;;6.10;5.50;;;21.50;58.00;;;;;;5023228;28;20229;-47
2021/09/01 01:46:53;;;;;;;5.60;5.10;;;21.50;58.30;;;;;;5020046;28;20190;-46
2021/09/01 01:49:19;;;;;;;5.87;5.40;;;21.50;58.20;;;;;;5011827;28;20202;-47
2021/09/01 01:51:51;;;;;;;6.43;5.87;;;21.50;58.10;;;;;;5014967;28;20193;-49
2021/09/01 01:54:16;;;;;;;5.87;5.37;;;21.60;58.10;;;;;;5017270;28;20202;-48
2021/09/01 01:56:43;;;;;;;6.03;5.43;;;21.50;58.30;;;;;;5024984;28;20455;-49
2021/09/01 01:59:09;;;;;;;28.37;6.70;;;21.60;57.90;;;;;;5020674;28;20565;-48
2021/09/01 02:01:35;;;;;;;8.80;6.13;;;21.60;57.90;;;;;;5039891;28;20447;-45
2021/09/01 02:04:00;;;;;;;5.97;5.43;;;21.50;58.20;;;;;;5016922;28;20220;-47
2021/09/01 02:06:27;;;;;;;5.60;5.20;;;21.50;58.80;;;;;;5016424;28;20201;-49
2021/09/01 02:08:53;;;;;;;6.67;6.07;;;21.50;58.40;;;;;;5016780;28;20653;-49
2021/09/01 02:11:18;;;;;;;5.50;5.10;;;21.50;58.30;;;;;;5016898;28;20444;-46
2021/09/01 02:13:44;;;;;;;7.23;5.60;;;21.50;58.40;;;;;;5023927;28;20444;-50
2021/09/01 02:16:09;;;;;;;6.13;5.63;;;21.50;58.30;;;;;;5014771;28;20194;-48
2021/09/01 02:18:35;;;;;;;6.40;5.80;;;21.60;58.20;;;;;;5021927;28;20233;-47
2021/09/01 02:21:00;;;;;;;5.93;5.33;;;21.60;58.20;;;;;;5016614;28;20256;-50
2021/09/01 02:23:26;;;;;;;5.73;5.23;;;21.60;58.30;;;;;;5015176;28;20216;-49
2021/09/01 02:25:52;;;;;;;5.40;4.90;;;21.60;58.20;;;;;;5016342;28;20562;-49
2021/09/01 02:28:17;;;;;;;5.97;5.23;;;21.50;58.20;;;;;;5024720;28;20312;-47
2021/09/01 02:30:43;;;;;;;5.10;4.70;;;21.50;58.40;;;;;;5015626;28;20198;-47
2021/09/01 02:33:08;;;;;;;4.93;4.57;;;21.50;58.30;;;;;;5025667;28;20191;-47
2021/09/01 02:35:34;;;;;;;5.13;4.73;;;21.50;58.40;;;;;;5023870;28;20197;-49
2021/09/01 02:38:00;;;;;;;4.87;4.47;;;21.60;58.60;;;;;;5014802;28;20190;-47
2021/09/01 02:40:26;;;;;;;5.97;5.50;;;21.60;58.40;;;;;;5022827;28;20212;-47
2021/09/01 02:42:52;;;;;;;6.10;5.60;;;21.60;58.30;;;;;;5015613;28;20205;-46
2021/09/01 02:45:17;;;;;;;5.90;4.40;;;21.70;58.10;;;;;;5016485;28;20542;-48
2021/09/01 02:47:47;;;;;;;6.03;5.33;;;21.50;58.40;;;;;;5024899;28;20220;-46
2021/09/01 02:50:13;;;;;;;5.33;4.83;;;21.50;58.60;;;;;;5025607;28;20192;-45
2021/09/01 02:52:41;;;;;;;4.47;4.17;;;21.50;58.10;;;;;;5024988;28;20491;-48
2021/09/01 02:55:07;;;;;;;5.17;4.77;;;21.50;58.40;;;;;;5019452;28;20951;-47
2021/09/01 02:57:32;;;;;;;9.10;5.00;;;21.60;58.40;;;;;;5017721;28;20452;-50
2021/09/01 02:59:58;;;;;;;5.10;4.70;;;21.50;58.40;;;;;;5025799;28;20827;-46
2021/09/01 03:02:23;;;;;;;5.87;5.27;;;21.50;58.30;;;;;;5015139;28;20190;-47
2021/09/01 03:04:49;;;;;;;4.83;4.43;;;21.60;58.50;;;;;;5016782;28;20225;-50
2021/09/01 03:07:15;;;;;;;4.50;4.13;;;21.50;58.60;;;;;;5023741;28;20206;-48
2021/09/01 03:09:40;;;;;;;5.57;5.10;;;21.50;58.70;;;;;;5032677;28;20272;-46
2021/09/01 03:12:06;;;;;;;5.17;4.77;;;21.60;58.60;;;;;;5013215;28;20225;-49
2021/09/01 03:14:32;;;;;;;15.50;6.40;;;21.60;58.60;;;;;;5020620;28;20194;-47
2021/09/01 03:16:57;;;;;;;4.60;4.20;;;21.60;58.40;;;;;;5025634;28;20535;-47
2021/09/01 03:19:23;;;;;;;4.00;3.70;;;21.60;58.60;;;;;;5030719;28;20316;-49
2021/09/01 03:21:49;;;;;;;5.20;4.70;;;21.60;58.70;;;;;;5021355;28;20197;-45
2021/09/01 03:24:15;;;;;;;5.37;4.97;;;21.50;58.70;;;;;;5028521;28;20228;-46
2021/09/01 03:26:41;;;;;;;46.73;7.30;;;21.60;58.40;;;;;;5025491;28;20978;-47
2021/09/01 03:29:07;;;;;;;4.83;4.43;;;21.60;58.60;;;;;;5030728;28;20268;-48
2021/09/01 03:31:32;;;;;;;5.80;5.30;;;21.60;58.30;;;;;;5029091;28;20197;-45
2021/09/01 03:33:58;;;;;;;5.17;4.67;;;21.50;58.40;;;;;;5015499;28;20609;-47
2021/09/01 03:36:24;;;;;;;4.07;3.77;;;21.50;58.40;;;;;;5018998;28;20554;-49
2021/09/01 03:38:50;;;;;;;5.10;4.30;;;21.50;58.60;;;;;;5015384;28;20265;-46
2021/09/01 03:41:15;;;;;;;14.00;5.10;;;21.50;59.00;;;;;;5021482;28;20235;-47
2021/09/01 03:43:41;;;;;;;4.87;4.57;;;21.50;59.40;;;;;;5015092;28;20843;-45
2021/09/01 03:46:07;;;;;;;5.63;5.10;;;21.60;58.90;;;;;;5024793;28;20202;-45
2021/09/01 03:48:33;;;;;;;4.97;4.50;;;21.60;58.40;;;;;;5018080;28;20441;-47
2021/09/01 03:50:58;;;;;;;4.90;4.50;;;21.60;58.60;;;;;;5025448;28;20284;-48
2021/09/01 03:53:24;;;;;;;6.00;5.40;;;21.60;58.50;;;;;;5020835;28;20447;-46
2021/09/01 03:55:50;;;;;;;11.70;5.70;;;21.60;58.40;;;;;;5020780;28;20193;-47
2021/09/01 03:58:15;;;;;;;4.80;4.40;;;21.60;58.40;;;;;;5019347;28;20213;-46
2021/09/01 04:00:42;;;;;;;22.33;6.07;;;21.60;58.20;;;;;;5019474;28;20241;-45
2021/09/01 04:03:09;;;;;;;5.40;4.60;;;21.60;58.20;;;;;;5021133;28;20198;-50
2021/09/01 04:05:34;;;;;;;5.53;4.67;;;21.50;58.30;;;;;;5028021;28;20503;-49
2021/09/01 04:08:00;;;;;;;8.27;4.60;;;21.60;58.50;;;;;;5020125;28;20444;-50
2021/09/01 04:10:26;;;;;;;4.40;4.00;;;21.50;58.40;;;;;;5023557;28;20559;-48
2021/09/01 04:12:51;;;;;;;6.10;3.37;;;21.50;58.80;;;;;;5014113;28;20221;-49
2021/09/01 04:15:17;;;;;;;5.90;3.73;;;21.50;58.80;;;;;;5027617;28;20665;-49
2021/09/01 04:17:42;;;;;;;4.43;4.03;;;21.50;58.60;;;;;;5018127;28;20229;-49
2021/09/01 04:20:08;;;;;;;6.17;4.77;;;21.50;58.80;;;;;;5019045;28;20228;-50
2021/09/01 04:22:35;;;;;;;4.70;4.30;;;21.50;58.60;;;;;;5028146;28;20654;-48
2021/09/01 04:25:00;;;;;;;7.13;5.30;;;21.50;58.70;;;;;;5017117;28;20533;-46
2021/09/01 04:27:26;;;;;;;5.07;4.67;;;21.60;58.70;;;;;;5018959;28;20444;-49
2021/09/01 04:29:51;;;;;;;5.53;4.70;;;21.60;58.30;;;;;;5022811;28;20197;-49
2021/09/01 04:32:17;;;;;;;4.80;4.40;;;21.50;58.00;;;;;;5019300;28;20203;-50
2021/09/01 04:34:43;;;;;;;5.70;4.60;;;21.50;58.40;;;;;;5017408;28;20248;-46
2021/09/01 04:37:08;;;;;;;22.37;6.97;;;21.50;58.30;;;;;;5016425;28;20224;-46
2021/09/01 04:39:34;;;;;;;15.30;6.00;;;21.50;58.30;;;;;;5016787;28;20734;-46
2021/09/01 04:42:00;;;;;;;21.67;5.83;;;21.40;58.00;;;;;;5015597;28;20275;-49
2021/09/01 04:44:25;;;;;;;5.00;4.60;;;21.40;57.80;;;;;;5013405;28;20224;-49
2021/09/01 04:46:51;;;;;;;4.33;4.03;;;21.40;58.10;;;;;;5016204;28;20264;-48
2021/09/01 04:49:17;;;;;;;5.23;4.80;;;21.40;58.80;;;;;;5015146;28;20582;-46
2021/09/01 04:51:42;;;;;;;5.60;4.57;;;21.40;59.00;;;;;;5016901;28;20197;-47
2021/09/01 04:54:08;;;;;;;4.50;4.10;;;21.40;58.70;;;;;;5021744;28;20210;-49
2021/09/01 04:56:34;;;;;;;4.50;4.20;;;21.40;58.70;;;;;;5020244;28;20201;-50
2021/09/01 04:58:59;;;;;;;4.73;4.30;;;21.40;58.30;;;;;;5022502;28;20675;-48
2021/09/01 05:01:25;;;;;;;4.73;4.33;;;21.50;58.80;;;;;;5023746;28;20744;-47
2021/09/01 05:03:50;;;;;;;4.70;4.40;;;21.40;58.70;;;;;;5022559;28;20227;-45
2021/09/01 05:06:16;;;;;;;23.10;6.47;;;21.40;59.00;;;;;;5020885;28;20222;-46
2021/09/01 05:08:42;;;;;;;7.00;4.30;;;21.40;58.50;;;;;;5017249;28;20188;-50
2021/09/01 05:11:07;;;;;;;4.40;4.00;;;21.40;58.30;;;;;;5015732;28;20634;-49
2021/09/01 05:13:36;;;;;;;12.90;5.70;;;21.30;58.70;;;;;;5012371;28;20284;-48
2021/09/01 05:16:01;;;;;;;4.50;4.10;;;21.30;58.50;;;;;;5014973;28;20201;-50
2021/09/01 05:18:27;;;;;;;26.80;6.40;;;21.40;58.70;;;;;;5013342;28;21144;-48
2021/09/01 05:20:57;;;;;;;5.77;5.17;;;21.40;58.30;;;;;;5015419;28;20563;-45
2021/09/01 05:23:28;;;;;;;13.17;7.90;;;21.40;58.30;;;;;;5013800;28;20255;-46
2021/09/01 05:25:57;;;;;;;13.40;7.33;;;21.40;58.50;;;;;;5016302;28;20494;-49
2021/09/01 05:28:28;;;;;;;13.10;7.10;;;21.40;57.50;;;;;;5025301;28;20483;-46
2021/09/01 05:30:55;;;;;;;7.73;4.67;;;21.30;57.50;;;;;;5019287;28;20581;-45
2021/09/01 05:33:21;;;;;;;8.63;5.97;;;21.00;59.80;;;;;;5024012;28;20444;-45
2021/09/01 05:35:51;;;;;;;19.07;6.80;;;21.10;59.30;;;;;;5017885;28;20459;-46
2021/09/01 05:38:18;;;;;;;7.07;5.93;;;21.20;57.80;;;;;;5026379;28;20448;-45
2021/09/01 05:40:46;;;;;;;7.03;6.33;;;21.10;58.00;;;;;;5025730;28;21063;-45
2021/09/01 05:43:12;;;;;;;8.47;7.00;;;21.20;57.90;;;;;;5015542;28;20501;-45
2021/09/01 05:45:40;;;;;;;10.97;6.43;;;21.20;57.40;;;;;;5019561;28;20480;-48
2021/09/01 05:48:08;;;;;;;6.70;6.00;;;21.20;57.30;;;;;;5018465;28;20808;-46
2021/09/01 05:50:33;;;;;;;11.80;6.90;;;21.20;57.20;;;;;;5022122;28;20441;-46
2021/09/01 05:52:59;;;;;;;9.27;6.40;;;21.20;57.10;;;;;;5016203;28;20455;-45
2021/09/01 05:55:29;;;;;;;6.47;5.87;;;21.20;57.20;;;;;;5020759;28;20216;-47
2021/09/01 05:58:00;;;;;;;7.37;6.43;;;21.20;57.20;;;;;;5016992;28;20224;-46
2021/09/01 06:00:32;;;;;;;6.80;6.20;;;21.20;57.20;;;;;;5023753;28;20440;-46
2021/09/01 06:03:01;;;;;;;6.10;5.50;;;21.20;57.20;;;;;;5018846;28;20497;-46
2021/09/01 06:05:28;;;;;;;6.93;6.33;;;21.20;57.30;;;;;;5023890;28;21000;-46
2021/09/01 06:07:55;;;;;;;7.50;6.43;;;21.30;57.20;;;;;;5024700;28;20506;-46
2021/09/01 06:10:25;;;;;;;7.50;6.40;;;21.20;57.20;;;;;;5028101;28;20452;-45
2021/09/01 06:12:54;;;;;;;12.10;7.00;;;21.20;57.30;;;;;;5021359;28;20444;-47
2021/09/01 06:15:20;;;;;;;6.47;5.87;;;21.20;57.50;;;;;;5019275;28;20547;-48
2021/09/01 06:17:45;;;;;;;8.70;7.00;;;21.10;57.70;;;;;;5014227;28;21057;-46
2021/09/01 06:20:11;;;;;;;10.70;6.43;;;21.00;57.50;;;;;;5019011;28;20450;-47
2021/09/01 06:22:37;;;;;;;7.90;7.10;;;21.00;57.30;;;;;;5011218;28;20200;-50
2021/09/01 06:25:03;;;;;;;7.77;6.73;;;20.90;57.90;;;;;;5023759;28;20484;-46
2021/09/01 06:27:29;;;;;;;8.63;6.60;;;20.90;57.90;;;;;;5016581;28;20198;-48
2021/09/01 06:29:55;;;;;;;11.07;8.43;;;21.00;57.80;;;;;;5018822;28;20826;-48
2021/09/01 06:32:21;;;;;;;8.70;7.43;;;21.00;57.90;;;;;;5016041;28;20437;-47
2021/09/01 06:34:46;;;;;;;8.10;6.90;;;21.00;58.00;;;;;;5022112;28;20575;-46
2021/09/01 06:37:12;;;;;;;14.07;8.50;;;21.00;57.90;;;;;;5020280;28;20197;-45
2021/09/01 06:39:38;;;;;;;10.30;7.70;;;21.00;57.60;;;;;;5029676;28;20279;-46
2021/09/01 06:42:04;;;;;;;10.00;7.60;;;20.90;57.90;;;;;;5022476;28;20668;-48
2021/09/01 06:44:29;;;;;;;9.10;8.17;;;21.00;58.10;;;;;;5018587;28;20221;-46
2021/09/01 06:46:55;;;;;;;9.10;8.20;;;21.00;57.90;;;;;;5026989;28;20433;-49
2021/09/01 06:49:20;;;;;;;7.20;6.50;;;21.00;58.00;;;;;;5037617;28;20276;-50
2021/09/01 06:51:46;;;;;;;11.73;8.30;;;21.00;58.00;;;;;;5029150;28;20518;-49
2021/09/01 06:54:12;;;;;;;8.33;7.53;;;21.10;58.00;;;;;;5028217;28;20197;-50
2021/09/01 06:56:37;;;;;;;9.17;8.23;;;21.10;58.10;;;;;;5024141;28;20186;-50
2021/09/01 06:59:03;;;;;;;12.63;8.10;;;21.10;58.10;;;;;;5031650;28;20657;-50
2021/09/01 07:01:28;;;;;;;12.97;8.80;;;21.10;58.00;;;;;;5026116;28;20557;-50
2021/09/01 07:03:54;;;;;;;11.00;7.97;;;20.90;58.10;;;;;;5029287;28;20225;-51
2021/09/01 07:06:21;;;;;;;8.63;7.83;;;20.90;58.50;;;;;;5029332;28;20220;-46
2021/09/01 07:08:47;;;;;;;9.13;8.23;;;21.00;58.60;;;;;;5022751;28;20434;-51
2021/09/01 07:11:13;;;;;;;14.63;8.80;;;21.00;58.90;;;;;;5029439;28;20425;-50
2021/09/01 07:13:38;;;;;;;11.17;10.00;;;21.00;58.20;;;;;;5024206;28;20219;-49
2021/09/01 07:16:05;;;;;;;10.43;9.13;;;21.10;58.10;;;;;;5023984;28;20553;-47
2021/09/01 07:18:30;;;;;;;11.20;9.80;;;21.00;58.20;;;;;;5032402;28;20286;-50
2021/09/01 07:20:56;;;;;;;9.13;8.20;;;21.00;58.20;;;;;;5033450;28;20456;-49
2021/09/01 07:23:21;;;;;;;12.10;9.50;;;21.00;58.30;;;;;;5027694;28;20641;-47
2021/09/01 07:25:47;;;;;;;13.90;10.10;;;21.00;58.40;;;;;;5028066;28;20228;-46
2021/09/01 07:28:13;;;;;;;10.90;9.73;;;21.00;58.20;;;;;;5027930;28;20195;-46
2021/09/01 07:30:38;;;;;;;10.87;9.57;;;21.00;58.30;;;;;;5020878;28;20198;-50
2021/09/01 07:33:04;;;;;;;11.10;9.40;;;21.00;58.40;;;;;;5026853;28;20193;-48
2021/09/01 07:35:30;;;;;;;14.43;10.10;;;21.00;58.40;;;;;;5025230;28;20193;-48
2021/09/01 07:37:56;;;;;;;18.03;10.43;;;21.00;58.60;;;;;;5025659;28;20562;-48
2021/09/01 07:40:23;;;;;;;10.67;8.93;;;21.00;58.50;;;;;;5046221;28;20202;-48
2021/09/01 07:42:50;;;;;;;11.97;10.60;;;21.10;58.50;;;;;;5035916;28;20435;-48
2021/09/01 07:45:17;;;;;;;10.13;7.73;;;21.10;58.60;;;;;;5027553;28;21056;-49
2021/09/01 07:47:51;;;;;;;9.40;8.50;;;21.10;58.60;;;;;;5021099;28;20464;-48
2021/09/01 07:50:22;;;;;;;10.83;9.40;;;21.20;58.80;;;;;;5028641;28;20435;-48
2021/09/01 07:52:48;;;;;;;12.03;9.87;;;21.20;58.90;;;;;;5022145;28;20920;-47
2021/09/01 07:55:14;;;;;;;9.00;7.97;;;21.40;59.00;;;;;;5030757;28;20511;-49
2021/09/01 07:57:40;;;;;;;9.50;8.20;;;21.40;58.90;;;;;;5026905;28;20810;-47
2021/09/01 08:00:07;;;;;;;10.17;8.77;;;21.50;58.80;;;;;;5015595;28;20196;-47
2021/09/01 08:02:33;;;;;;;9.00;8.17;;;21.40;58.50;;;;;;5025773;28;20221;-48
2021/09/01 08:04:58;;;;;;;7.93;7.13;;;21.40;58.60;;;;;;5028055;28;20523;-49
2021/09/01 08:07:24;;;;;;;10.00;8.23;;;21.50;58.70;;;;;;5030618;28;20204;-51
2021/09/01 08:09:50;;;;;;;14.47;9.67;;;21.50;58.70;;;;;;5026106;28;20190;-47
2021/09/01 08:12:16;;;;;;;10.87;9.77;;;21.60;58.60;;;;;;5027873;28;20428;-46
2021/09/01 08:14:41;;;;;;;10.83;9.73;;;21.60;58.60;;;;;;5025189;28;20194;-48
2021/09/01 08:17:07;;;;;;;11.77;10.57;;;21.50;58.50;;;;;;5024138;28;20262;-47
2021/09/01 08:19:32;;;;;;;11.50;10.30;;;21.50;58.90;;;;;;5022348;28;20641;-48
2021/09/01 08:21:58;;;;;;;10.90;9.40;;;21.40;59.30;;;;;;5033505;28;20196;-47
2021/09/01 08:24:24;;;;;;;11.60;10.40;;;21.40;59.40;;;;;;5029290;28;20591;-50
2021/09/01 08:26:50;;;;;;;13.53;11.20;;;21.40;59.60;;;;;;5029074;28;20196;-47
2021/09/01 08:29:15;;;;;;;11.60;10.50;;;21.40;59.80;;;;;;5023170;28;20433;-47
2021/09/01 08:31:41;;;;;;;11.97;10.50;;;20.90;60.10;;;;;;5024825;28;20660;-46
2021/09/01 08:34:07;;;;;;;13.90;10.53;;;20.90;61.30;;;;;;5020795;28;20190;-48
2021/09/01 08:36:32;;;;;;;12.00;10.70;;;21.00;61.90;;;;;;5022587;28;20278;-50
2021/09/01 08:38:58;;;;;;;12.30;10.57;;;21.20;61.40;;;;;;5022138;28;20560;-46
2021/09/01 08:41:25;;;;;;;13.33;11.57;;;21.30;61.10;;;;;;5030539;28;20206;-47
2021/09/01 08:43:50;;;;;;;11.80;10.67;;;21.30;60.80;;;;;;5019860;28;20292;-47
2021/09/01 08:46:16;;;;;;;12.57;11.27;;;21.40;60.80;;;;;;5021231;28;20475;-46
2021/09/01 08:48:42;;;;;;;13.90;11.20;;;21.50;60.90;;;;;;5032070;28;20197;-46
2021/09/01 08:51:08;;;;;;;12.43;10.90;;;21.50;60.50;;;;;;5032935;28;20195;-47
2021/09/01 08:53:36;;;;;;;12.63;11.33;;;21.30;60.90;;;;;;5030543;28;20420;-47
2021/09/01 08:56:02;;;;;;;15.27;10.57;;;21.50;61.10;;;;;;5037010;28;20874;-46
2021/09/01 08:58:27;;;;;;;12.40;11.20;;;21.60;61.20;;;;;;5051691;28;20509;-49
2021/09/01 09:00:53;;;;;;;13.17;11.90;;;21.80;61.30;;;;;;5052942;28;20188;-46
2021/09/01 09:03:18;;;;;;;12.50;11.20;;;21.90;60.80;;;;;;5052597;28;20242;-47
2021/09/01 09:05:46;;;;;;;10.70;9.67;;;22.00;62.20;;;;;;5037071;28;20231;-46
2021/09/01 09:08:14;;;;;;;12.43;11.23;;;22.30;62.10;;;;;;5031559;28;20284;-47
2021/09/01 09:10:46;;;;;;;12.53;11.30;;;22.70;60.20;;;;;;5031550;28;20490;-48
2021/09/01 09:13:34;;;;;;;10.80;9.80;;;22.90;59.10;;;;;;5031952;28;20424;-47
2021/09/01 09:16:11;;;;;;;10.27;9.30;;;23.00;59.70;;;;;;5030703;28;20444;-47
2021/09/01 09:18:37;;;;;;;11.53;10.43;;;23.30;59.50;;;;;;5031254;28;20498;-49
2021/09/01 09:21:21;;;;;;;11.23;9.67;;;23.40;58.50;;;;;;5030710;28;21009;-47
2021/09/01 09:23:51;;;;;;;10.67;9.67;;;23.50;60.10;;;;;;5019922;28;20546;-47
2021/09/01 09:26:28;;;;;;;10.67;9.57;;;23.60;59.80;;;;;;5030065;28;20764;-47
2021/09/01 09:29:09;;;;;;;9.30;8.50;;;23.70;58.60;;;;;;5023553;28;20451;-47
2021/09/01 09:31:36;;;;;;;10.30;9.40;;;23.90;60.10;;;;;;5031154;28;20454;-47
2021/09/01 09:34:09;;;;;;;10.20;9.20;;;24.00;58.60;;;;;;5031594;28;20417;-48
2021/09/01 09:36:35;;;;;;;9.80;8.90;;;24.10;57.90;;;;;;5031972;28;20428;-52
2021/09/01 09:39:01;;;;;;;9.80;9.00;;;24.30;59.00;;;;;;5028942;28;20802;-50
2021/09/01 09:41:30;;;;;;;10.30;9.30;;;24.50;58.30;;;;;;5032041;28;20189;-52
2021/09/01 09:44:06;;;;;;;9.57;8.67;;;24.70;57.70;;;;;;5014525;28;20225;-52
2021/09/01 09:46:45;;;;;;;9.97;8.97;;;24.80;57.60;;;;;;5031759;28;20804;-50
2021/09/01 09:49:10;;;;;;;9.07;8.17;;;25.00;56.40;;;;;;5029167;28;20442;-51
2021/09/01 09:51:37;;;;;;;9.70;8.80;;;25.20;56.60;;;;;;5022958;28;20444;-51
2021/09/01 09:54:18;;;;;;;9.37;8.40;;;25.30;56.40;;;;;;5030899;28;20276;-51
2021/09/01 09:56:45;;;;;;;10.40;9.33;;;25.50;56.30;;;;;;5031549;28;21077;-51
2021/09/01 09:59:18;;;;;;;8.53;7.63;;;25.40;55.40;;;;;;5030352;28;20911;-51
2021/09/01 10:01:45;;;;;;;8.93;8.13;;;25.50;56.50;;;;;;5031763;28;20702;-50
2021/09/01 10:04:10;;;;;;;9.93;9.10;;;25.60;55.50;;;;;;5013285;28;20495;-51
2021/09/01 10:06:36;;;;;;;9.50;8.70;;;25.50;55.90;;;;;;5026241;28;20439;-51
2021/09/01 10:09:04;;;;;;;8.10;7.30;;;25.70;55.60;;;;;;5030806;28;20238;-48
2021/09/01 10:11:32;;;;;;;8.07;7.27;;;25.90;55.60;;;;;;5031665;28;20288;-50
2021/09/01 10:13:58;;;;;;;8.03;7.23;;;26.00;54.90;;;;;;5025507;28;20949;-52
2021/09/01 10:16:44;;;;;;;8.00;7.07;;;26.30;54.90;;;;;;5030981;28;20463;-50
2021/09/01 10:19:14;;;;;;;9.30;8.50;;;26.50;53.70;;;;;;5030639;28;20688;-52
2021/09/01 10:21:43;;;;;;;7.57;6.97;;;26.60;53.30;;;;;;5030949;28;20432;-50
2021/09/01 10:24:32;;;;;;;8.23;7.50;;;26.80;53.80;;;;;;5030658;28;20490;-47
2021/09/01 10:27:13;;;;;;;8.40;7.03;;;26.90;52.20;;;;;;5029499;28;20459;-47
2021/09/01 10:29:58;;;;;;;9.87;6.40;;;26.90;52.40;;;;;;5031258;28;20440;-52
2021/09/01 10:32:30;;;;;;;8.27;6.30;;;26.90;51.70;;;;;;5031038;28;20905;-51
2021/09/01 10:35:08;;;;;;;7.90;7.20;;;27.00;51.00;;;;;;5031310;28;20594;-52
2021/09/01 10:37:43;;;;;;;7.87;7.17;;;27.10;52.00;;;;;;5027508;28;20912;-53
2021/09/01 10:40:11;;;;;;;7.90;7.17;;;27.10;51.10;;;;;;5020636;28;20443;-50
2021/09/01 10:42:39;;;;;;;7.33;6.73;;;27.10;50.10;;;;;;5028470;28;20443;-48
2021/09/01 10:45:10;;;;;;;6.23;5.70;;;27.00;50.90;;;;;;5030490;28;20483;-47
2021/09/01 10:47:51;;;;;;;6.37;5.87;;;27.10;51.80;;;;;;5050021;28;20836;-51
2021/09/01 10:50:37;;;;;;;7.70;7.00;;;27.00;49.90;;;;;;5030101;28;20451;-51
2021/09/01 10:53:18;;;;;;;6.60;6.10;;;26.90;49.40;;;;;;5030423;28;20786;-47
2021/09/01 10:55:50;;;;;;;6.30;5.70;;;26.90;49.30;;;;;;5031006;28;20526;-51
2021/09/01 10:58:18;;;;;;;6.60;6.00;;;26.70;49.50;;;;;;5030159;28;20446;-47
2021/09/01 11:00:49;;;;;;;6.13;5.60;;;26.70;50.00;;;;;;5029133;28;20851;-48
2021/09/01 11:03:27;;;;;;;6.13;5.63;;;26.80;49.60;;;;;;5030419;28;20812;-50
2021/09/01 11:05:53;;;;;;;5.27;4.87;;;26.80;49.20;;;;;;5031099;28;20966;-48
2021/09/01 11:08:19;;;;;;;4.93;4.43;;;26.90;48.10;;;;;;5028455;28;20428;-47
2021/09/01 11:11:02;;;;;;;5.23;4.73;;;27.10;47.70;;;;;;5030772;28;20769;-47
2021/09/01 11:13:46;;;;;;;4.80;4.40;;;27.20;47.20;;;;;;5028782;28;20276;-47
2021/09/01 11:16:22;;;;;;;5.00;4.60;;;27.40;47.00;;;;;;5030888;28;20504;-51
2021/09/01 11:18:57;;;;;;;4.90;4.50;;;27.60;46.30;;;;;;5029645;28;20478;-48
2021/09/01 11:21:24;;;;;;;4.83;4.43;;;27.60;44.60;;;;;;5030614;28;20439;-47
2021/09/01 11:23:49;;;;;;;3.70;3.40;;;27.70;44.80;;;;;;5028894;28;20420;-47
2021/09/01 11:26:15;;;;;;;5.07;4.67;;;27.90;43.70;;;;;;5027699;28;20467;-46
2021/09/01 11:28:40;;;;;;;5.00;4.60;;;28.20;43.30;;;;;;5021941;28;20622;-47
2021/09/01 11:31:21;;;;;;;4.50;4.10;;;28.30;43.20;;;;;;5030672;28;20231;-47
2021/09/01 11:33:46;;;;;;;5.67;4.40;;;28.40;42.00;;;;;;5031506;28;20544;-47
2021/09/01 11:36:12;;;;;;;4.90;3.80;;;28.50;41.60;;;;;;5031188;28;20447;-48
2021/09/01 11:38:45;;;;;;;4.60;4.20;;;28.40;39.10;;;;;;5021889;28;20194;-47
2021/09/01 11:41:11;;;;;;;4.70;4.20;;;28.30;40.40;;;;;;5038869;28;20734;-46
2021/09/01 11:43:37;;;;;;;4.63;4.23;;;28.00;40.00;;;;;;5053900;28;20415;-52
2021/09/01 11:46:03;;;;;;;5.30;4.20;;;28.10;40.30;;;;;;5020551;28;20451;-50
2021/09/01 11:48:41;;;;;;;4.07;3.77;;;28.10;41.20;;;;;;5031636;28;20568;-47
2021/09/01 11:51:07;;;;;;;4.50;4.13;;;28.00;41.20;;;;;;5033658;28;20197;-51
2021/09/01 11:53:40;;;;;;;7.07;5.00;;;27.90;40.60;;;;;;5033406;28;20432;-48
2021/09/01 11:56:07;;;;;;;4.23;3.73;;;27.90;41.10;;;;;;5033977;28;20428;-46
2021/09/01 11:58:33;;;;;;;5.03;3.80;;;27.90;40.60;;;;;;5032665;28;20947;-47
2021/09/01 12:01:00;;;;;;;9.70;3.87;;;27.90;41.60;;;;;;5028944;28;20444;-46
2021/09/01 12:03:26;;;;;;;4.77;4.37;;;28.00;42.50;;;;;;5026924;28;20291;-50
2021/09/01 12:06:10;;;;;;;4.40;4.10;;;28.20;41.90;;;;;;5033875;28;20483;-47
2021/09/01 12:08:50;;;;;;;5.00;4.60;;;28.40;43.10;;;;;;5032829;28;20431;-47
2021/09/01 12:11:17;;;;;;;6.97;4.30;;;28.20;40.00;;;;;;5031433;28;20437;-49
2021/09/01 12:13:44;;;;;;;5.40;4.93;;;28.00;39.30;;;;;;5026742;28;20975;-46
2021/09/01 12:16:11;;;;;;;4.53;4.17;;;27.80;41.20;;;;;;5031209;28;20806;-46
2021/09/01 12:18:55;;;;;;;4.47;4.07;;;27.90;42.00;;;;;;5051958;28;20463;-51
2021/09/01 12:21:23;;;;;;;4.40;4.03;;;28.10;42.10;;;;;;5053134;28;20431;-47
2021/09/01 12:24:15;;;;;;;6.90;4.70;;;28.10;39.90;;;;;;5052766;28;20484;-47
2021/09/01 12:26:57;;;;;;;3.90;3.47;;;28.20;38.40;;;;;;5031672;28;20443;-47
2021/09/01 12:29:30;;;;;;;4.17;3.80;;;28.30;39.90;;;;;;5050664;28;20526;-51
2021/09/01 12:31:57;;;;;;;4.90;4.37;;;28.40;40.60;;;;;;5053380;28;20841;-47
2021/09/01 12:34:30;;;;;;;4.27;3.97;;;28.40;41.30;;;;;;5052687;28;20431;-51
2021/09/01 12:36:58;;;;;;;4.07;3.67;;;28.50;39.10;;;;;;5053143;28;20497;-51
2021/09/01 12:39:23;;;;;;;5.07;4.40;;;28.80;39.40;;;;;;5045347;28;20789;-49
2021/09/01 12:41:49;;;;;;;4.90;3.93;;;29.00;39.10;;;;;;5033167;28;20455;-51
2021/09/01 12:44:16;;;;;;;5.07;4.47;;;29.00;39.20;;;;;;5030425;28;20221;-51
2021/09/01 12:46:42;;;;;;;4.30;4.00;;;29.30;38.60;;;;;;5033396;28;20200;-51